sensor_id;sensor_type;location;lat;lon;timestamp;P1;durP1;ratioP1;P2;durP2;ratioP2
60730;SDS011;46580;52.114;11.674;2023-12-20T00:01:02;12.33;;;2.60;;
60730;SDS011;46580;52.114;11.674;2023-12-20T00:03:28;3.97;;;2.40;;
60730;SDS011;46580;52.114;11.674;2023-12-20T00:05:53;3.13;;;2.30;;
60730;SDS011;46580;52.114;11.674;2023-12-20T00:08:19;3.63;;;2.23;;
60730;SDS011;46580;52.114;11.674;2023-12-20T00:10:44;5.03;;;2.73;;
60730;SDS011;46580;52.114;11.674;2023-12-20T00:13:10;2.80;;;1.97;;
60730;SDS011;46580;52.114;11.674;2023-12-20T00:15:35;4.97;;;2.83;;
60730;SDS011;46580;52.114;11.674;2023-12-20T00:18:01;3.67;;;2.67;;
60730;SDS011;46580;52.114;11.674;2023-12-20T00:20:28;3.33;;;2.37;;
60730;SDS011;46580;52.114;11.674;2023-12-20T00:22:57;3.17;;;2.27;;
60730;SDS011;46580;52.114;11.674;2023-12-20T00:25:23;2.23;;;1.53;;
60730;SDS011;46580;52.114;11.674;2023-12-20T00:27:48;4.53;;;2.30;;
60730;SDS011;46580;52.114;11.674;2023-12-20T00:30:14;2.77;;;2.00;;
60730;SDS011;46580;52.114;11.674;2023-12-20T00:32:40;2.37;;;1.87;;
60730;SDS011;46580;52.114;11.674;2023-12-20T00:35:11;2.00;;;1.63;;
60730;SDS011;46580;52.114;11.674;2023-12-20T00:37:39;2.00;;;1.57;;
60730;SDS011;46580;52.114;11.674;2023-12-20T00:40:05;2.00;;;1.63;;
60730;SDS011;46580;52.114;11.674;2023-12-20T00:42:31;2.03;;;1.27;;
60730;SDS011;46580;52.114;11.674;2023-12-20T00:44:57;3.47;;;1.63;;
60730;SDS011;46580;52.114;11.674;2023-12-20T00:47:23;2.83;;;1.70;;
60730;SDS011;46580;52.114;11.674;2023-12-20T00:49:49;1.93;;;1.43;;
60730;SDS011;46580;52.114;11.674;2023-12-20T00:52:14;2.30;;;1.40;;
60730;SDS011;46580;52.114;11.674;2023-12-20T00:54:42;2.10;;;1.53;;
60730;SDS011;46580;52.114;11.674;2023-12-20T00:57:07;2.57;;;1.70;;
60730;SDS011;46580;52.114;11.674;2023-12-20T00:59:32;2.13;;;1.53;;
60730;SDS011;46580;52.114;11.674;2023-12-20T01:01:58;3.90;;;1.63;;
60730;SDS011;46580;52.114;11.674;2023-12-20T01:04:23;2.13;;;1.50;;
60730;SDS011;46580;52.114;11.674;2023-12-20T01:06:48;1.60;;;1.23;;
60730;SDS011;46580;52.114;11.674;2023-12-20T01:09:14;2.07;;;1.63;;
60730;SDS011;46580;52.114;11.674;2023-12-20T01:11:40;2.20;;;1.70;;
60730;SDS011;46580;52.114;11.674;2023-12-20T01:14:05;2.63;;;1.80;;
60730;SDS011;46580;52.114;11.674;2023-12-20T01:16:32;2.23;;;1.53;;
60730;SDS011;46580;52.114;11.674;2023-12-20T01:18:58;3.17;;;1.90;;
60730;SDS011;46580;52.114;11.674;2023-12-20T01:21:24;2.23;;;1.67;;
60730;SDS011;46580;52.114;11.674;2023-12-20T01:23:49;2.63;;;1.60;;
60730;SDS011;46580;52.114;11.674;2023-12-20T01:26:16;3.10;;;1.67;;
60730;SDS011;46580;52.114;11.674;2023-12-20T01:28:42;2.30;;;1.83;;
60730;SDS011;46580;52.114;11.674;2023-12-20T01:31:08;2.93;;;2.07;;
60730;SDS011;46580;52.114;11.674;2023-12-20T01:33:33;3.73;;;2.30;;
60730;SDS011;46580;52.114;11.674;2023-12-20T01:35:59;3.13;;;2.53;;
60730;SDS011;46580;52.114;11.674;2023-12-20T01:38:25;3.60;;;2.40;;
60730;SDS011;46580;52.114;11.674;2023-12-20T01:40:50;3.63;;;2.20;;
60730;SDS011;46580;52.114;11.674;2023-12-20T01:43:16;3.53;;;2.47;;
60730;SDS011;46580;52.114;11.674;2023-12-20T01:45:42;4.40;;;2.33;;
60730;SDS011;46580;52.114;11.674;2023-12-20T01:48:08;3.50;;;2.40;;
60730;SDS011;46580;52.114;11.674;2023-12-20T01:50:34;2.50;;;2.27;;
60730;SDS011;46580;52.114;11.674;2023-12-20T01:53:02;3.47;;;2.27;;
60730;SDS011;46580;52.114;11.674;2023-12-20T01:55:29;4.20;;;2.73;;
60730;SDS011;46580;52.114;11.674;2023-12-20T01:57:58;5.23;;;3.37;;
60730;SDS011;46580;52.114;11.674;2023-12-20T02:00:25;3.93;;;2.37;;
60730;SDS011;46580;52.114;11.674;2023-12-20T02:02:54;3.43;;;2.10;;
60730;SDS011;46580;52.114;11.674;2023-12-20T02:05:20;3.93;;;1.80;;
60730;SDS011;46580;52.114;11.674;2023-12-20T02:07:47;2.27;;;1.57;;
60730;SDS011;46580;52.114;11.674;2023-12-20T02:10:12;2.63;;;1.20;;
60730;SDS011;46580;52.114;11.674;2023-12-20T02:12:38;2.80;;;1.30;;
60730;SDS011;46580;52.114;11.674;2023-12-20T02:15:04;4.33;;;1.10;;
60730;SDS011;46580;52.114;11.674;2023-12-20T02:17:30;2.73;;;1.10;;
60730;SDS011;46580;52.114;11.674;2023-12-20T02:19:57;2.17;;;0.90;;
60730;SDS011;46580;52.114;11.674;2023-12-20T02:22:22;1.70;;;1.00;;
60730;SDS011;46580;52.114;11.674;2023-12-20T02:24:47;3.70;;;0.70;;
60730;SDS011;46580;52.114;11.674;2023-12-20T02:27:13;2.23;;;1.20;;
60730;SDS011;46580;52.114;11.674;2023-12-20T02:29:42;8.10;;;0.90;;
60730;SDS011;46580;52.114;11.674;2023-12-20T02:32:08;2.40;;;0.57;;
60730;SDS011;46580;52.114;11.674;2023-12-20T02:34:34;1.20;;;0.90;;
60730;SDS011;46580;52.114;11.674;2023-12-20T02:36:59;4.20;;;0.77;;
60730;SDS011;46580;52.114;11.674;2023-12-20T02:39:26;4.57;;;0.90;;
60730;SDS011;46580;52.114;11.674;2023-12-20T02:41:51;4.10;;;1.00;;
60730;SDS011;46580;52.114;11.674;2023-12-20T02:44:17;7.23;;;0.83;;
60730;SDS011;46580;52.114;11.674;2023-12-20T02:46:42;4.07;;;1.07;;
60730;SDS011;46580;52.114;11.674;2023-12-20T02:49:07;2.77;;;0.70;;
60730;SDS011;46580;52.114;11.674;2023-12-20T02:51:33;2.70;;;1.07;;
60730;SDS011;46580;52.114;11.674;2023-12-20T02:53:58;1.40;;;0.77;;
60730;SDS011;46580;52.114;11.674;2023-12-20T02:56:23;0.67;;;0.50;;
60730;SDS011;46580;52.114;11.674;2023-12-20T02:58:48;3.10;;;0.87;;
60730;SDS011;46580;52.114;11.674;2023-12-20T03:01:14;4.37;;;1.27;;
60730;SDS011;46580;52.114;11.674;2023-12-20T03:03:39;3.47;;;1.50;;
60730;SDS011;46580;52.114;11.674;2023-12-20T03:06:05;0.80;;;0.60;;
60730;SDS011;46580;52.114;11.674;2023-12-20T03:08:30;4.53;;;1.07;;
60730;SDS011;46580;52.114;11.674;2023-12-20T03:10:55;5.40;;;1.23;;
60730;SDS011;46580;52.114;11.674;2023-12-20T03:13:24;5.63;;;1.00;;
60730;SDS011;46580;52.114;11.674;2023-12-20T03:15:50;1.63;;;0.47;;
60730;SDS011;46580;52.114;11.674;2023-12-20T03:18:16;4.97;;;1.10;;
60730;SDS011;46580;52.114;11.674;2023-12-20T03:20:43;6.63;;;1.07;;
60730;SDS011;46580;52.114;11.674;2023-12-20T03:23:08;3.67;;;1.53;;
60730;SDS011;46580;52.114;11.674;2023-12-20T03:25:36;2.03;;;1.23;;
60730;SDS011;46580;52.114;11.674;2023-12-20T03:28:02;3.03;;;1.37;;
60730;SDS011;46580;52.114;11.674;2023-12-20T03:30:27;4.03;;;1.10;;
60730;SDS011;46580;52.114;11.674;2023-12-20T03:32:52;3.07;;;1.17;;
60730;SDS011;46580;52.114;11.674;2023-12-20T03:35:18;3.27;;;1.27;;
60730;SDS011;46580;52.114;11.674;2023-12-20T03:37:44;7.07;;;1.43;;
60730;SDS011;46580;52.114;11.674;2023-12-20T03:40:10;4.00;;;0.80;;
60730;SDS011;46580;52.114;11.674;2023-12-20T03:42:36;2.33;;;1.23;;
60730;SDS011;46580;52.114;11.674;2023-12-20T03:45:02;5.83;;;1.83;;
60730;SDS011;46580;52.114;11.674;2023-12-20T03:47:27;2.50;;;0.83;;
60730;SDS011;46580;52.114;11.674;2023-12-20T03:49:54;3.47;;;1.37;;
60730;SDS011;46580;52.114;11.674;2023-12-20T03:52:19;2.17;;;1.03;;
60730;SDS011;46580;52.114;11.674;2023-12-20T03:54:46;3.23;;;1.10;;
60730;SDS011;46580;52.114;11.674;2023-12-20T03:57:12;9.83;;;1.23;;
60730;SDS011;46580;52.114;11.674;2023-12-20T03:59:37;7.33;;;2.13;;
60730;SDS011;46580;52.114;11.674;2023-12-20T04:02:03;5.37;;;1.80;;
60730;SDS011;46580;52.114;11.674;2023-12-20T04:04:29;13.20;;;2.67;;
60730;SDS011;46580;52.114;11.674;2023-12-20T04:06:55;3.83;;;1.20;;
60730;SDS011;46580;52.114;11.674;2023-12-20T04:09:20;2.97;;;1.30;;
60730;SDS011;46580;52.114;11.674;2023-12-20T04:11:46;6.17;;;1.53;;
60730;SDS011;46580;52.114;11.674;2023-12-20T04:14:11;2.23;;;1.30;;
60730;SDS011;46580;52.114;11.674;2023-12-20T04:16:39;5.23;;;1.43;;
60730;SDS011;46580;52.114;11.674;2023-12-20T04:19:04;2.73;;;0.97;;
60730;SDS011;46580;52.114;11.674;2023-12-20T04:21:30;6.90;;;1.60;;
60730;SDS011;46580;52.114;11.674;2023-12-20T04:23:55;10.33;;;1.43;;
60730;SDS011;46580;52.114;11.674;2023-12-20T04:26:22;4.13;;;0.87;;
60730;SDS011;46580;52.114;11.674;2023-12-20T04:28:47;2.97;;;0.97;;
60730;SDS011;46580;52.114;11.674;2023-12-20T04:31:13;2.57;;;1.30;;
60730;SDS011;46580;52.114;11.674;2023-12-20T04:33:38;6.47;;;1.30;;
60730;SDS011;46580;52.114;11.674;2023-12-20T04:36:04;5.77;;;1.20;;
60730;SDS011;46580;52.114;11.674;2023-12-20T04:38:30;0.97;;;0.90;;
60730;SDS011;46580;52.114;11.674;2023-12-20T04:40:56;4.03;;;1.37;;
60730;SDS011;46580;52.114;11.674;2023-12-20T04:43:22;5.90;;;2.10;;
60730;SDS011;46580;52.114;11.674;2023-12-20T04:45:47;2.90;;;0.90;;
60730;SDS011;46580;52.114;11.674;2023-12-20T04:48:13;5.97;;;1.20;;
60730;SDS011;46580;52.114;11.674;2023-12-20T04:50:38;4.37;;;1.00;;
60730;SDS011;46580;52.114;11.674;2023-12-20T04:53:04;3.83;;;0.83;;
60730;SDS011;46580;52.114;11.674;2023-12-20T04:55:29;7.30;;;1.17;;
60730;SDS011;46580;52.114;11.674;2023-12-20T04:57:56;2.90;;;1.00;;
60730;SDS011;46580;52.114;11.674;2023-12-20T05:00:22;0.77;;;0.43;;
60730;SDS011;46580;52.114;11.674;2023-12-20T05:02:48;4.37;;;1.00;;
60730;SDS011;46580;52.114;11.674;2023-12-20T05:05:13;3.43;;;0.90;;
60730;SDS011;46580;52.114;11.674;2023-12-20T05:07:40;4.67;;;1.07;;
60730;SDS011;46580;52.114;11.674;2023-12-20T05:10:06;6.43;;;1.00;;
60730;SDS011;46580;52.114;11.674;2023-12-20T05:12:35;5.57;;;1.00;;
60730;SDS011;46580;52.114;11.674;2023-12-20T05:15:01;4.63;;;1.43;;
60730;SDS011;46580;52.114;11.674;2023-12-20T05:17:26;1.17;;;0.83;;
60730;SDS011;46580;52.114;11.674;2023-12-20T05:19:51;6.07;;;1.33;;
60730;SDS011;46580;52.114;11.674;2023-12-20T05:22:17;4.87;;;0.50;;
60730;SDS011;46580;52.114;11.674;2023-12-20T05:24:45;2.03;;;0.83;;
60730;SDS011;46580;52.114;11.674;2023-12-20T05:27:10;0.97;;;0.67;;
60730;SDS011;46580;52.114;11.674;2023-12-20T05:29:36;4.27;;;0.80;;
60730;SDS011;46580;52.114;11.674;2023-12-20T05:32:02;1.57;;;0.70;;
60730;SDS011;46580;52.114;11.674;2023-12-20T05:34:29;2.93;;;0.87;;
60730;SDS011;46580;52.114;11.674;2023-12-20T05:36:57;4.20;;;0.80;;
60730;SDS011;46580;52.114;11.674;2023-12-20T05:39:26;2.03;;;0.80;;
60730;SDS011;46580;52.114;11.674;2023-12-20T05:41:52;1.83;;;0.90;;
60730;SDS011;46580;52.114;11.674;2023-12-20T05:44:18;3.03;;;0.80;;
60730;SDS011;46580;52.114;11.674;2023-12-20T05:46:44;5.47;;;0.80;;
60730;SDS011;46580;52.114;11.674;2023-12-20T05:49:09;4.13;;;0.87;;
60730;SDS011;46580;52.114;11.674;2023-12-20T05:51:35;1.83;;;0.70;;
60730;SDS011;46580;52.114;11.674;2023-12-20T05:54:01;1.33;;;0.50;;
60730;SDS011;46580;52.114;11.674;2023-12-20T05:56:27;9.00;;;1.27;;
60730;SDS011;46580;52.114;11.674;2023-12-20T05:58:52;1.53;;;0.87;;
60730;SDS011;46580;52.114;11.674;2023-12-20T06:01:17;1.80;;;0.77;;
60730;SDS011;46580;52.114;11.674;2023-12-20T06:03:43;3.90;;;1.10;;
60730;SDS011;46580;52.114;11.674;2023-12-20T06:06:11;0.93;;;0.53;;
60730;SDS011;46580;52.114;11.674;2023-12-20T06:08:37;1.37;;;1.03;;
60730;SDS011;46580;52.114;11.674;2023-12-20T06:11:04;4.93;;;0.87;;
60730;SDS011;46580;52.114;11.674;2023-12-20T06:13:30;3.00;;;1.10;;
60730;SDS011;46580;52.114;11.674;2023-12-20T06:15:56;1.40;;;0.50;;
60730;SDS011;46580;52.114;11.674;2023-12-20T06:18:22;1.63;;;0.80;;
60730;SDS011;46580;52.114;11.674;2023-12-20T06:20:48;2.63;;;0.60;;
60730;SDS011;46580;52.114;11.674;2023-12-20T06:23:14;2.50;;;0.60;;
60730;SDS011;46580;52.114;11.674;2023-12-20T06:25:40;2.30;;;0.73;;
60730;SDS011;46580;52.114;11.674;2023-12-20T06:28:06;5.37;;;0.73;;
60730;SDS011;46580;52.114;11.674;2023-12-20T06:30:32;0.80;;;0.43;;
60730;SDS011;46580;52.114;11.674;2023-12-20T06:32:59;1.70;;;0.70;;
60730;SDS011;46580;52.114;11.674;2023-12-20T06:35:24;4.33;;;0.90;;
60730;SDS011;46580;52.114;11.674;2023-12-20T06:37:50;0.90;;;0.67;;
60730;SDS011;46580;52.114;11.674;2023-12-20T06:40:17;3.27;;;0.50;;
60730;SDS011;46580;52.114;11.674;2023-12-20T06:42:44;3.00;;;0.60;;
60730;SDS011;46580;52.114;11.674;2023-12-20T06:45:11;3.60;;;0.70;;
60730;SDS011;46580;52.114;11.674;2023-12-20T06:47:37;1.57;;;0.50;;
60730;SDS011;46580;52.114;11.674;2023-12-20T06:50:03;6.40;;;0.80;;
60730;SDS011;46580;52.114;11.674;2023-12-20T06:52:29;2.70;;;1.07;;
60730;SDS011;46580;52.114;11.674;2023-12-20T06:54:57;3.27;;;0.50;;
60730;SDS011;46580;52.114;11.674;2023-12-20T06:57:22;1.10;;;0.47;;
60730;SDS011;46580;52.114;11.674;2023-12-20T06:59:54;3.93;;;0.73;;
60730;SDS011;46580;52.114;11.674;2023-12-20T07:02:20;2.63;;;0.90;;
60730;SDS011;46580;52.114;11.674;2023-12-20T07:04:47;1.40;;;0.70;;
60730;SDS011;46580;52.114;11.674;2023-12-20T07:07:13;0.67;;;0.40;;
60730;SDS011;46580;52.114;11.674;2023-12-20T07:09:39;2.83;;;0.80;;
60730;SDS011;46580;52.114;11.674;2023-12-20T07:12:07;3.53;;;1.10;;
60730;SDS011;46580;52.114;11.674;2023-12-20T07:14:33;4.03;;;0.53;;
60730;SDS011;46580;52.114;11.674;2023-12-20T07:16:58;3.37;;;0.67;;
60730;SDS011;46580;52.114;11.674;2023-12-20T07:19:23;2.07;;;0.47;;
60730;SDS011;46580;52.114;11.674;2023-12-20T07:21:50;0.30;;;0.30;;
60730;SDS011;46580;52.114;11.674;2023-12-20T07:24:17;1.77;;;0.77;;
60730;SDS011;46580;52.114;11.674;2023-12-20T07:26:43;2.13;;;0.63;;
60730;SDS011;46580;52.114;11.674;2023-12-20T07:29:10;5.43;;;1.07;;
60730;SDS011;46580;52.114;11.674;2023-12-20T07:31:35;2.50;;;1.07;;
60730;SDS011;46580;52.114;11.674;2023-12-20T07:34:03;2.10;;;0.80;;
60730;SDS011;46580;52.114;11.674;2023-12-20T07:36:29;3.77;;;1.00;;
60730;SDS011;46580;52.114;11.674;2023-12-20T07:38:56;4.23;;;0.87;;
60730;SDS011;46580;52.114;11.674;2023-12-20T07:41:22;1.70;;;0.70;;
60730;SDS011;46580;52.114;11.674;2023-12-20T07:43:48;4.77;;;0.73;;
60730;SDS011;46580;52.114;11.674;2023-12-20T07:46:14;5.40;;;0.90;;
60730;SDS011;46580;52.114;11.674;2023-12-20T07:48:40;1.23;;;0.60;;
60730;SDS011;46580;52.114;11.674;2023-12-20T07:51:06;2.03;;;0.63;;
60730;SDS011;46580;52.114;11.674;2023-12-20T07:53:33;5.17;;;1.00;;
60730;SDS011;46580;52.114;11.674;2023-12-20T07:55:59;1.23;;;0.53;;
60730;SDS011;46580;52.114;11.674;2023-12-20T07:58:27;4.13;;;0.90;;
60730;SDS011;46580;52.114;11.674;2023-12-20T08:00:55;5.80;;;1.70;;
60730;SDS011;46580;52.114;11.674;2023-12-20T08:03:20;4.33;;;1.07;;
60730;SDS011;46580;52.114;11.674;2023-12-20T08:05:45;2.40;;;0.90;;
60730;SDS011;46580;52.114;11.674;2023-12-20T08:08:11;7.90;;;0.97;;
60730;SDS011;46580;52.114;11.674;2023-12-20T08:10:37;1.67;;;1.10;;
60730;SDS011;46580;52.114;11.674;2023-12-20T08:13:02;4.40;;;1.20;;
60730;SDS011;46580;52.114;11.674;2023-12-20T08:15:28;2.37;;;0.63;;
60730;SDS011;46580;52.114;11.674;2023-12-20T08:17:53;9.37;;;1.10;;
60730;SDS011;46580;52.114;11.674;2023-12-20T08:20:18;6.50;;;1.23;;
60730;SDS011;46580;52.114;11.674;2023-12-20T08:22:45;5.50;;;0.83;;
60730;SDS011;46580;52.114;11.674;2023-12-20T08:25:10;6.30;;;1.07;;
60730;SDS011;46580;52.114;11.674;2023-12-20T08:27:39;8.07;;;1.30;;
60730;SDS011;46580;52.114;11.674;2023-12-20T08:30:05;8.63;;;1.37;;
60730;SDS011;46580;52.114;11.674;2023-12-20T08:32:33;2.63;;;1.30;;
60730;SDS011;46580;52.114;11.674;2023-12-20T08:34:59;3.37;;;1.20;;
60730;SDS011;46580;52.114;11.674;2023-12-20T08:37:24;6.40;;;1.00;;
60730;SDS011;46580;52.114;11.674;2023-12-20T08:39:50;3.33;;;1.20;;
60730;SDS011;46580;52.114;11.674;2023-12-20T08:42:16;2.93;;;0.83;;
60730;SDS011;46580;52.114;11.674;2023-12-20T08:44:42;3.30;;;1.10;;
60730;SDS011;46580;52.114;11.674;2023-12-20T08:47:09;1.77;;;0.93;;
60730;SDS011;46580;52.114;11.674;2023-12-20T08:49:38;4.83;;;1.10;;
60730;SDS011;46580;52.114;11.674;2023-12-20T08:52:04;1.87;;;0.87;;
60730;SDS011;46580;52.114;11.674;2023-12-20T08:54:29;3.23;;;1.50;;
60730;SDS011;46580;52.114;11.674;2023-12-20T08:56:56;2.37;;;1.10;;
60730;SDS011;46580;52.114;11.674;2023-12-20T08:59:21;2.17;;;1.10;;
60730;SDS011;46580;52.114;11.674;2023-12-20T09:01:48;4.30;;;1.20;;
60730;SDS011;46580;52.114;11.674;2023-12-20T09:04:19;8.80;;;2.10;;
60730;SDS011;46580;52.114;11.674;2023-12-20T09:06:44;3.63;;;1.17;;
60730;SDS011;46580;52.114;11.674;2023-12-20T09:09:10;5.10;;;1.00;;
60730;SDS011;46580;52.114;11.674;2023-12-20T09:11:38;4.63;;;1.10;;
60730;SDS011;46580;52.114;11.674;2023-12-20T09:14:04;3.00;;;1.10;;
60730;SDS011;46580;52.114;11.674;2023-12-20T09:16:30;4.03;;;1.23;;
60730;SDS011;46580;52.114;11.674;2023-12-20T09:18:56;4.67;;;1.23;;
60730;SDS011;46580;52.114;11.674;2023-12-20T09:21:21;5.10;;;1.10;;
60730;SDS011;46580;52.114;11.674;2023-12-20T09:23:47;3.60;;;1.97;;
60730;SDS011;46580;52.114;11.674;2023-12-20T09:26:12;7.63;;;1.07;;
60730;SDS011;46580;52.114;11.674;2023-12-20T09:28:38;3.90;;;1.70;;
60730;SDS011;46580;52.114;11.674;2023-12-20T09:31:05;4.43;;;0.83;;
60730;SDS011;46580;52.114;11.674;2023-12-20T09:33:31;5.47;;;1.43;;
60730;SDS011;46580;52.114;11.674;2023-12-20T09:35:59;4.67;;;1.60;;
60730;SDS011;46580;52.114;11.674;2023-12-20T09:38:24;5.20;;;1.07;;
60730;SDS011;46580;52.114;11.674;2023-12-20T09:40:50;1.93;;;1.07;;
60730;SDS011;46580;52.114;11.674;2023-12-20T09:43:15;5.27;;;1.73;;
60730;SDS011;46580;52.114;11.674;2023-12-20T09:45:45;6.23;;;1.20;;
60730;SDS011;46580;52.114;11.674;2023-12-20T09:48:12;5.47;;;0.97;;
60730;SDS011;46580;52.114;11.674;2023-12-20T09:50:39;3.30;;;1.53;;
60730;SDS011;46580;52.114;11.674;2023-12-20T09:53:05;5.47;;;0.90;;
60730;SDS011;46580;52.114;11.674;2023-12-20T09:55:34;5.60;;;1.00;;
60730;SDS011;46580;52.114;11.674;2023-12-20T09:58:01;3.40;;;0.93;;
60730;SDS011;46580;52.114;11.674;2023-12-20T10:00:26;5.03;;;0.90;;
60730;SDS011;46580;52.114;11.674;2023-12-20T10:02:56;4.97;;;1.37;;
60730;SDS011;46580;52.114;11.674;2023-12-20T10:05:30;2.37;;;1.10;;
60730;SDS011;46580;52.114;11.674;2023-12-20T10:07:56;6.90;;;1.60;;
60730;SDS011;46580;52.114;11.674;2023-12-20T10:10:22;6.70;;;1.13;;
60730;SDS011;46580;52.114;11.674;2023-12-20T10:13:08;9.27;;;1.30;;
60730;SDS011;46580;52.114;11.674;2023-12-20T10:15:35;3.90;;;0.90;;
60730;SDS011;46580;52.114;11.674;2023-12-20T10:18:02;4.03;;;1.10;;
60730;SDS011;46580;52.114;11.674;2023-12-20T10:20:28;4.17;;;1.03;;
60730;SDS011;46580;52.114;11.674;2023-12-20T10:22:55;4.73;;;1.40;;
60730;SDS011;46580;52.114;11.674;2023-12-20T10:25:21;3.10;;;1.17;;
60730;SDS011;46580;52.114;11.674;2023-12-20T10:27:47;2.30;;;0.77;;
60730;SDS011;46580;52.114;11.674;2023-12-20T10:30:14;5.37;;;1.07;;
60730;SDS011;46580;52.114;11.674;2023-12-20T10:32:40;3.30;;;1.10;;
60730;SDS011;46580;52.114;11.674;2023-12-20T10:35:08;6.03;;;1.93;;
60730;SDS011;46580;52.114;11.674;2023-12-20T10:37:37;4.43;;;1.30;;
60730;SDS011;46580;52.114;11.674;2023-12-20T10:40:03;4.97;;;1.30;;
60730;SDS011;46580;52.114;11.674;2023-12-20T10:42:31;2.83;;;1.20;;
60730;SDS011;46580;52.114;11.674;2023-12-20T10:44:58;4.40;;;1.40;;
60730;SDS011;46580;52.114;11.674;2023-12-20T10:47:29;1.67;;;0.90;;
60730;SDS011;46580;52.114;11.674;2023-12-20T10:49:55;1.80;;;1.30;;
60730;SDS011;46580;52.114;11.674;2023-12-20T10:52:23;2.93;;;1.50;;
60730;SDS011;46580;52.114;11.674;2023-12-20T11:01:10;5.40;;;1.03;;
60730;SDS011;46580;52.114;11.674;2023-12-20T11:03:37;7.03;;;1.90;;
60730;SDS011;46580;52.114;11.674;2023-12-20T11:06:09;3.57;;;1.30;;
60730;SDS011;46580;52.114;11.674;2023-12-20T11:08:51;4.83;;;1.27;;
60730;SDS011;46580;52.114;11.674;2023-12-20T11:11:31;7.20;;;1.53;;
60730;SDS011;46580;52.114;11.674;2023-12-20T11:14:08;3.80;;;1.10;;
60730;SDS011;46580;52.114;11.674;2023-12-20T11:16:42;2.57;;;1.17;;
60730;SDS011;46580;52.114;11.674;2023-12-20T11:19:08;8.30;;;1.83;;
60730;SDS011;46580;52.114;11.674;2023-12-20T11:21:35;8.37;;;1.63;;
60730;SDS011;46580;52.114;11.674;2023-12-20T11:24:03;4.83;;;1.30;;
60730;SDS011;46580;52.114;11.674;2023-12-20T11:26:30;7.23;;;1.90;;
60730;SDS011;46580;52.114;11.674;2023-12-20T11:32:00;2.07;;;1.17;;
60730;SDS011;46580;52.114;11.674;2023-12-20T11:34:27;3.27;;;1.13;;
60730;SDS011;46580;52.114;11.674;2023-12-20T11:36:57;2.30;;;1.00;;
60730;SDS011;46580;52.114;11.674;2023-12-20T11:39:24;3.70;;;1.50;;
60730;SDS011;46580;52.114;11.674;2023-12-20T11:41:50;1.20;;;0.80;;
60730;SDS011;46580;52.114;11.674;2023-12-20T11:44:17;3.57;;;1.17;;
60730;SDS011;46580;52.114;11.674;2023-12-20T11:46:43;4.43;;;0.97;;
60730;SDS011;46580;52.114;11.674;2023-12-20T11:49:09;4.70;;;1.20;;
60730;SDS011;46580;52.114;11.674;2023-12-20T11:51:40;2.97;;;0.70;;
60730;SDS011;46580;52.114;11.674;2023-12-20T11:54:06;2.77;;;0.80;;
60730;SDS011;46580;52.114;11.674;2023-12-20T11:56:33;2.17;;;1.53;;
60730;SDS011;46580;52.114;11.674;2023-12-20T11:59:00;3.20;;;1.23;;
60730;SDS011;46580;52.114;11.674;2023-12-20T12:01:26;3.47;;;1.50;;
60730;SDS011;46580;52.114;11.674;2023-12-20T12:04:02;2.60;;;1.60;;
60730;SDS011;46580;52.114;11.674;2023-12-20T12:06:30;1.73;;;0.97;;
60730;SDS011;46580;52.114;11.674;2023-12-20T12:08:56;5.43;;;1.07;;
60730;SDS011;46580;52.114;11.674;2023-12-20T12:11:22;5.80;;;1.43;;
60730;SDS011;46580;52.114;11.674;2023-12-20T12:13:48;2.30;;;1.37;;
60730;SDS011;46580;52.114;11.674;2023-12-20T12:16:18;5.47;;;1.67;;
60730;SDS011;46580;52.114;11.674;2023-12-20T12:18:45;3.80;;;1.20;;
60730;SDS011;46580;52.114;11.674;2023-12-20T12:21:18;5.23;;;1.73;;
60730;SDS011;46580;52.114;11.674;2023-12-20T12:23:44;4.13;;;1.60;;
60730;SDS011;46580;52.114;11.674;2023-12-20T12:26:09;7.87;;;1.83;;
60730;SDS011;46580;52.114;11.674;2023-12-20T12:28:37;3.10;;;0.97;;
60730;SDS011;46580;52.114;11.674;2023-12-20T12:31:05;3.33;;;1.33;;
60730;SDS011;46580;52.114;11.674;2023-12-20T12:33:30;4.97;;;1.60;;
60730;SDS011;46580;52.114;11.674;2023-12-20T12:35:56;1.73;;;1.30;;
60730;SDS011;46580;52.114;11.674;2023-12-20T12:38:22;6.67;;;1.50;;
60730;SDS011;46580;52.114;11.674;2023-12-20T12:40:49;7.03;;;1.70;;
60730;SDS011;46580;52.114;11.674;2023-12-20T12:43:15;2.43;;;0.97;;
60730;SDS011;46580;52.114;11.674;2023-12-20T12:45:43;3.17;;;1.40;;
60730;SDS011;46580;52.114;11.674;2023-12-20T12:48:08;2.90;;;1.60;;
60730;SDS011;46580;52.114;11.674;2023-12-20T12:50:34;3.13;;;1.43;;
60730;SDS011;46580;52.114;11.674;2023-12-20T12:53:00;3.20;;;1.40;;
60730;SDS011;46580;52.114;11.674;2023-12-20T12:55:27;1.57;;;1.03;;
60730;SDS011;46580;52.114;11.674;2023-12-20T12:57:53;1.83;;;1.03;;
60730;SDS011;46580;52.114;11.674;2023-12-20T13:00:19;3.07;;;1.37;;
60730;SDS011;46580;52.114;11.674;2023-12-20T13:02:45;3.67;;;1.33;;
60730;SDS011;46580;52.114;11.674;2023-12-20T13:05:11;3.87;;;1.53;;
60730;SDS011;46580;52.114;11.674;2023-12-20T13:07:36;4.00;;;1.50;;
60730;SDS011;46580;52.114;11.674;2023-12-20T13:10:04;1.17;;;1.07;;
60730;SDS011;46580;52.114;11.674;2023-12-20T13:12:30;4.03;;;2.00;;
60730;SDS011;46580;52.114;11.674;2023-12-20T13:14:57;4.20;;;1.87;;
60730;SDS011;46580;52.114;11.674;2023-12-20T13:17:22;3.23;;;1.60;;
60730;SDS011;46580;52.114;11.674;2023-12-20T13:19:47;2.87;;;1.47;;
60730;SDS011;46580;52.114;11.674;2023-12-20T13:22:14;3.60;;;1.60;;
60730;SDS011;46580;52.114;11.674;2023-12-20T13:24:40;10.33;;;1.70;;
60730;SDS011;46580;52.114;11.674;2023-12-20T13:27:05;6.07;;;2.00;;
60730;SDS011;46580;52.114;11.674;2023-12-20T13:29:30;2.33;;;1.30;;
60730;SDS011;46580;52.114;11.674;2023-12-20T13:31:56;2.90;;;1.60;;
60730;SDS011;46580;52.114;11.674;2023-12-20T13:34:23;1.87;;;1.00;;
60730;SDS011;46580;52.114;11.674;2023-12-20T13:36:48;2.33;;;1.27;;
60730;SDS011;46580;52.114;11.674;2023-12-20T13:39:15;1.70;;;1.37;;
60730;SDS011;46580;52.114;11.674;2023-12-20T13:41:42;2.23;;;0.90;;
60730;SDS011;46580;52.114;11.674;2023-12-20T13:44:08;2.20;;;1.07;;
60730;SDS011;46580;52.114;11.674;2023-12-20T13:46:34;1.50;;;1.17;;
60730;SDS011;46580;52.114;11.674;2023-12-20T13:48:59;6.00;;;1.33;;
60730;SDS011;46580;52.114;11.674;2023-12-20T13:51:24;2.23;;;1.00;;
60730;SDS011;46580;52.114;11.674;2023-12-20T13:53:50;1.83;;;1.27;;
60730;SDS011;46580;52.114;11.674;2023-12-20T13:56:16;2.50;;;1.07;;
60730;SDS011;46580;52.114;11.674;2023-12-20T13:58:43;3.40;;;0.83;;
60730;SDS011;46580;52.114;11.674;2023-12-20T14:01:09;4.97;;;1.10;;
60730;SDS011;46580;52.114;11.674;2023-12-20T14:03:35;5.67;;;0.90;;
60730;SDS011;46580;52.114;11.674;2023-12-20T14:06:01;0.83;;;0.60;;
60730;SDS011;46580;52.114;11.674;2023-12-20T14:08:27;4.67;;;0.60;;
60730;SDS011;46580;52.114;11.674;2023-12-20T14:10:52;2.00;;;0.60;;
60730;SDS011;46580;52.114;11.674;2023-12-20T14:13:19;3.17;;;0.70;;
60730;SDS011;46580;52.114;11.674;2023-12-20T14:15:44;0.83;;;0.50;;
60730;SDS011;46580;52.114;11.674;2023-12-20T14:18:09;0.97;;;0.50;;
60730;SDS011;46580;52.114;11.674;2023-12-20T14:20:35;0.40;;;0.40;;
60730;SDS011;46580;52.114;11.674;2023-12-20T14:23:01;2.07;;;0.70;;
60730;SDS011;46580;52.114;11.674;2023-12-20T14:25:27;1.43;;;0.37;;
60730;SDS011;46580;52.114;11.674;2023-12-20T14:27:52;0.60;;;0.40;;
60730;SDS011;46580;52.114;11.674;2023-12-20T14:30:18;0.73;;;0.23;;
60730;SDS011;46580;52.114;11.674;2023-12-20T14:32:44;0.60;;;0.30;;
60730;SDS011;46580;52.114;11.674;2023-12-20T14:35:09;1.10;;;0.50;;
60730;SDS011;46580;52.114;11.674;2023-12-20T14:37:37;1.57;;;0.20;;